Terminal Aerodrome Forecast
Issued by NWS Cleveland, OH

Home | Current Version | Previous Version | Graphics & Text | Print | Product List | Glossary On
Versions: 1 2 3 4 5 6 7 8 9 10 11 12 13 14 15 16 17 18 19 20 21
353
FTUS41 KCLE 210539
TAFTOL
TAF
KTOL 210539Z 2106/2206 18003KT 1/2SM FG OVC002
     FM211100 18005KT 1SM BR OVC006
     FM211400 18008KT 4SM BR OVC015
     FM211800 19010KT P6SM BKN035=

USA.gov is the U.S. government's official web portal to all federal, state and local government web resources and services.